Corunna, Indiana
Current Conditions -  °F | °C
As of 5:35 PM on Sunday 25 Jan 2015 (Local Time) from KGWB Reporting Station
Light Snow Light Snow  
Wind Chill:   Ceiling: 700
Heat Index: 23°   Visibility: 1mi
Dew Point: 19°   Wind: 17mph
Humidity: 86%   Direction: 60°ENE
Pressure: 29.85"   Gusts: 23mph
Location:  41.44°N, 85.15°W
Report Text: KGWB 252235Z AUTO 06015G20KT 1SM -SN OVC007 M05/M07 A2985 RMK AO2
Loading
Personal Weather Stations






























Interactive Weather Map New forecast layout! Learn more

10-Day Weather Forecast

Advertisements
Track Severe Weather on mobile